sensor_id;sensor_type;location;lat;lon;timestamp;pressure;altitude;pressure_sealevel;temperature;humidity
41706;BME280;27385;51.096;17.190;2023-01-29T00:00:34;101434.77;;;-1.54;83.89
41706;BME280;27385;51.096;17.190;2023-01-29T00:03:25;101436.81;;;-1.58;84.04
41706;BME280;27385;51.096;17.190;2023-01-29T00:05:56;101435.83;;;-1.61;84.11
41706;BME280;27385;51.096;17.190;2023-01-29T00:08:27;101432.26;;;-1.64;84.22
41706;BME280;27385;51.096;17.190;2023-01-29T00:11:03;101429.39;;;-1.68;84.19
41706;BME280;27385;51.096;17.190;2023-01-29T00:13:34;101430.52;;;-1.70;84.29
41706;BME280;27385;51.096;17.190;2023-01-29T00:16:06;101432.45;;;-1.71;84.38
41706;BME280;27385;51.096;17.190;2023-01-29T00:18:40;101429.88;;;-1.72;84.55
41706;BME280;27385;51.096;17.190;2023-01-29T00:21:12;101430.86;;;-1.73;84.64
41706;BME280;27385;51.096;17.190;2023-01-29T00:23:44;101427.57;;;-1.74;84.83
41706;BME280;27385;51.096;17.190;2023-01-29T00:26:16;101421.54;;;-1.75;84.88
41706;BME280;27385;51.096;17.190;2023-01-29T00:28:47;101420.27;;;-1.76;84.96
41706;BME280;27385;51.096;17.190;2023-01-29T00:31:20;101420.18;;;-1.76;84.97
41706;BME280;27385;51.096;17.190;2023-01-29T00:33:52;101421.13;;;-1.76;85.10
41706;BME280;27385;51.096;17.190;2023-01-29T00:36:24;101416.44;;;-1.77;85.06
41706;BME280;27385;51.096;17.190;2023-01-29T00:39:00;101406.73;;;-1.76;84.98
41706;BME280;27385;51.096;17.190;2023-01-29T00:41:39;101403.42;;;-1.78;84.93
41706;BME280;27385;51.096;17.190;2023-01-29T00:44:28;101398.63;;;-1.80;84.91
41706;BME280;27385;51.096;17.190;2023-01-29T00:47:17;101393.64;;;-1.83;84.91
41706;BME280;27385;51.096;17.190;2023-01-29T00:50:03;101394.80;;;-1.88;84.78
41706;BME280;27385;51.096;17.190;2023-01-29T00:52:35;101394.75;;;-1.92;84.61
41706;BME280;27385;51.096;17.190;2023-01-29T00:55:09;101390.17;;;-1.95;84.58
41706;BME280;27385;51.096;17.190;2023-01-29T00:57:40;101386.06;;;-1.97;84.70
41706;BME280;27385;51.096;17.190;2023-01-29T01:00:15;101376.30;;;-2.01;84.70
41706;BME280;27385;51.096;17.190;2023-01-29T01:02:46;101373.29;;;-2.04;84.84
41706;BME280;27385;51.096;17.190;2023-01-29T01:05:36;101369.27;;;-2.05;85.01
41706;BME280;27385;51.096;17.190;2023-01-29T01:08:09;101362.77;;;-2.06;85.08
41706;BME280;27385;51.096;17.190;2023-01-29T01:11:01;101358.50;;;-2.05;85.23
41706;BME280;27385;51.096;17.190;2023-01-29T01:13:33;101362.52;;;-2.07;85.26
41706;BME280;27385;51.096;17.190;2023-01-29T01:16:09;101361.52;;;-2.07;85.36
41706;BME280;27385;51.096;17.190;2023-01-29T01:18:41;101358.84;;;-2.08;85.41
41706;BME280;27385;51.096;17.190;2023-01-29T01:21:12;101352.90;;;-2.08;85.43
41706;BME280;27385;51.096;17.190;2023-01-29T01:23:43;101350.02;;;-2.07;85.57
41706;BME280;27385;51.096;17.190;2023-01-29T01:26:14;101349.77;;;-2.08;85.57
41706;BME280;27385;51.096;17.190;2023-01-29T01:28:45;101352.20;;;-2.08;85.66
41706;BME280;27385;51.096;17.190;2023-01-29T01:31:16;101358.30;;;-2.08;85.84
41706;BME280;27385;51.096;17.190;2023-01-29T01:33:48;101351.98;;;-2.08;85.77
41706;BME280;27385;51.096;17.190;2023-01-29T01:36:20;101356.58;;;-2.08;85.73
41706;BME280;27385;51.096;17.190;2023-01-29T01:38:51;101363.23;;;-2.07;85.85
41706;BME280;27385;51.096;17.190;2023-01-29T01:41:23;101358.46;;;-2.07;85.84
41706;BME280;27385;51.096;17.190;2023-01-29T01:43:56;101356.36;;;-2.06;85.93
41706;BME280;27385;51.096;17.190;2023-01-29T01:46:29;101356.39;;;-2.05;85.83
41706;BME280;27385;51.096;17.190;2023-01-29T01:49:07;101356.27;;;-2.03;85.83
41706;BME280;27385;51.096;17.190;2023-01-29T01:51:41;101349.80;;;-2.01;86.00
41706;BME280;27385;51.096;17.190;2023-01-29T01:54:16;101343.27;;;-2.00;85.95
41706;BME280;27385;51.096;17.190;2023-01-29T01:56:52;101345.41;;;-1.97;86.13
41706;BME280;27385;51.096;17.190;2023-01-29T01:59:34;101339.44;;;-1.94;86.12
41706;BME280;27385;51.096;17.190;2023-01-29T02:02:06;101336.64;;;-1.93;86.15
41706;BME280;27385;51.096;17.190;2023-01-29T02:04:54;101330.41;;;-1.91;86.15
41706;BME280;27385;51.096;17.190;2023-01-29T02:07:44;101331.30;;;-1.89;86.16
41706;BME280;27385;51.096;17.190;2023-01-29T02:10:41;101332.95;;;-1.89;86.19
41706;BME280;27385;51.096;17.190;2023-01-29T02:13:12;101338.33;;;-1.89;86.23
41706;BME280;27385;51.096;17.190;2023-01-29T02:15:47;101347.08;;;-1.90;86.19
41706;BME280;27385;51.096;17.190;2023-01-29T02:18:20;101347.84;;;-1.91;86.24
41706;BME280;27385;51.096;17.190;2023-01-29T02:21:06;101348.90;;;-1.94;86.27
41706;BME280;27385;51.096;17.190;2023-01-29T02:24:05;101350.92;;;-1.95;86.26
41706;BME280;27385;51.096;17.190;2023-01-29T02:27:04;101353.08;;;-1.96;86.44
41706;BME280;27385;51.096;17.190;2023-01-29T02:29:44;101351.91;;;-1.97;86.42
41706;BME280;27385;51.096;17.190;2023-01-29T02:32:28;101350.73;;;-1.97;86.58
41706;BME280;27385;51.096;17.190;2023-01-29T02:35:16;101352.63;;;-1.95;86.57
41706;BME280;27385;51.096;17.190;2023-01-29T02:38:12;101353.59;;;-1.95;86.63
41706;BME280;27385;51.096;17.190;2023-01-29T02:40:51;101351.10;;;-1.93;86.57
41706;BME280;27385;51.096;17.190;2023-01-29T02:43:32;101346.44;;;-1.91;86.72
41706;BME280;27385;51.096;17.190;2023-01-29T02:46:14;101354.77;;;-1.88;86.77
41706;BME280;27385;51.096;17.190;2023-01-29T02:48:51;101355.48;;;-1.89;86.61
41706;BME280;27385;51.096;17.190;2023-01-29T02:51:28;101352.06;;;-1.87;86.71
41706;BME280;27385;51.096;17.190;2023-01-29T02:54:05;101353.40;;;-1.85;86.53
41706;BME280;27385;51.096;17.190;2023-01-29T02:56:42;101352.40;;;-1.84;86.59
41706;BME280;27385;51.096;17.190;2023-01-29T02:59:18;101353.84;;;-1.83;86.60
41706;BME280;27385;51.096;17.190;2023-01-29T03:01:52;101351.61;;;-1.81;86.50
41706;BME280;27385;51.096;17.190;2023-01-29T03:04:29;101346.95;;;-1.79;86.43
41706;BME280;27385;51.096;17.190;2023-01-29T03:07:04;101349.61;;;-1.77;86.31
41706;BME280;27385;51.096;17.190;2023-01-29T03:09:43;101350.11;;;-1.76;86.31
41706;BME280;27385;51.096;17.190;2023-01-29T03:12:21;101348.23;;;-1.75;86.20
41706;BME280;27385;51.096;17.190;2023-01-29T03:15:06;101349.83;;;-1.73;85.96
41706;BME280;27385;51.096;17.190;2023-01-29T03:17:48;101350.57;;;-1.71;86.00
41706;BME280;27385;51.096;17.190;2023-01-29T03:20:23;101342.69;;;-1.70;85.80
41706;BME280;27385;51.096;17.190;2023-01-29T03:22:59;101336.29;;;-1.70;85.42
41706;BME280;27385;51.096;17.190;2023-01-29T03:25:32;101341.98;;;-1.70;85.34
41706;BME280;27385;51.096;17.190;2023-01-29T03:28:22;101339.03;;;-1.68;85.38
41706;BME280;27385;51.096;17.190;2023-01-29T03:31:12;101334.52;;;-1.67;85.33
41706;BME280;27385;51.096;17.190;2023-01-29T03:34:07;101337.34;;;-1.66;85.03
41706;BME280;27385;51.096;17.190;2023-01-29T03:36:50;101343.03;;;-1.68;84.77
41706;BME280;27385;51.096;17.190;2023-01-29T03:39:25;101342.33;;;-1.68;84.83
41706;BME280;27385;51.096;17.190;2023-01-29T03:42:01;101345.30;;;-1.67;84.85
41706;BME280;27385;51.096;17.190;2023-01-29T03:44:37;101345.57;;;-1.66;84.78
41706;BME280;27385;51.096;17.190;2023-01-29T03:47:16;101348.30;;;-1.65;84.53
41706;BME280;27385;51.096;17.190;2023-01-29T03:49:57;101342.70;;;-1.63;84.50
41706;BME280;27385;51.096;17.190;2023-01-29T03:52:37;101332.29;;;-1.64;84.60
41706;BME280;27385;51.096;17.190;2023-01-29T03:55:15;101330.58;;;-1.64;84.52
41706;BME280;27385;51.096;17.190;2023-01-29T03:57:54;101326.81;;;-1.65;84.22
41706;BME280;27385;51.096;17.190;2023-01-29T04:00:31;101320.02;;;-1.64;84.38
41706;BME280;27385;51.096;17.190;2023-01-29T04:03:08;101316.95;;;-1.65;84.32
41706;BME280;27385;51.096;17.190;2023-01-29T04:05:46;101315.70;;;-1.65;84.07
41706;BME280;27385;51.096;17.190;2023-01-29T04:08:24;101313.75;;;-1.65;84.27
41706;BME280;27385;51.096;17.190;2023-01-29T04:10:58;101312.66;;;-1.62;84.25
41706;BME280;27385;51.096;17.190;2023-01-29T04:13:31;101311.34;;;-1.63;84.19
41706;BME280;27385;51.096;17.190;2023-01-29T04:16:08;101312.29;;;-1.62;84.35
41706;BME280;27385;51.096;17.190;2023-01-29T04:18:45;101313.38;;;-1.62;84.39
41706;BME280;27385;51.096;17.190;2023-01-29T04:21:17;101312.92;;;-1.62;84.32
41706;BME280;27385;51.096;17.190;2023-01-29T04:23:48;101316.60;;;-1.61;84.41
41706;BME280;27385;51.096;17.190;2023-01-29T04:26:39;101312.46;;;-1.61;84.15
41706;BME280;27385;51.096;17.190;2023-01-29T04:29:24;101308.47;;;-1.61;84.13
41706;BME280;27385;51.096;17.190;2023-01-29T04:32:08;101299.00;;;-1.61;84.20
41706;BME280;27385;51.096;17.190;2023-01-29T04:34:50;101294.55;;;-1.61;84.11
41706;BME280;27385;51.096;17.190;2023-01-29T04:37:31;101293.45;;;-1.61;84.12
41706;BME280;27385;51.096;17.190;2023-01-29T04:40:13;101291.03;;;-1.61;83.95
41706;BME280;27385;51.096;17.190;2023-01-29T04:42:50;101285.07;;;-1.62;83.80
41706;BME280;27385;51.096;17.190;2023-01-29T04:45:30;101274.73;;;-1.62;83.87
41706;BME280;27385;51.096;17.190;2023-01-29T04:48:12;101272.39;;;-1.63;83.76
41706;BME280;27385;51.096;17.190;2023-01-29T04:50:55;101268.69;;;-1.64;83.46
41706;BME280;27385;51.096;17.190;2023-01-29T04:53:36;101264.54;;;-1.65;83.65
41706;BME280;27385;51.096;17.190;2023-01-29T04:56:18;101259.69;;;-1.66;83.54
41706;BME280;27385;51.096;17.190;2023-01-29T04:58:53;101264.67;;;-1.67;83.45
41706;BME280;27385;51.096;17.190;2023-01-29T05:01:28;101264.36;;;-1.67;83.37
41706;BME280;27385;51.096;17.190;2023-01-29T05:04:03;101263.87;;;-1.68;83.17
41706;BME280;27385;51.096;17.190;2023-01-29T05:06:36;101263.88;;;-1.68;83.15
41706;BME280;27385;51.096;17.190;2023-01-29T05:09:08;101264.19;;;-1.68;83.10
41706;BME280;27385;51.096;17.190;2023-01-29T05:11:39;101266.36;;;-1.68;83.18
41706;BME280;27385;51.096;17.190;2023-01-29T05:14:12;101263.63;;;-1.68;83.13
41706;BME280;27385;51.096;17.190;2023-01-29T05:16:48;101261.43;;;-1.69;83.18
41706;BME280;27385;51.096;17.190;2023-01-29T05:19:21;101255.16;;;-1.69;83.11
41706;BME280;27385;51.096;17.190;2023-01-29T05:21:52;101260.25;;;-1.69;82.95
41706;BME280;27385;51.096;17.190;2023-01-29T05:24:25;101260.41;;;-1.69;82.96
41706;BME280;27385;51.096;17.190;2023-01-29T05:26:57;101252.92;;;-1.68;83.04
41706;BME280;27385;51.096;17.190;2023-01-29T05:29:46;101250.73;;;-1.68;83.00
41706;BME280;27385;51.096;17.190;2023-01-29T05:32:17;101251.44;;;-1.68;82.85
41706;BME280;27385;51.096;17.190;2023-01-29T05:34:48;101251.27;;;-1.68;83.01
41706;BME280;27385;51.096;17.190;2023-01-29T05:37:19;101245.89;;;-1.67;83.05
41706;BME280;27385;51.096;17.190;2023-01-29T05:39:50;101244.85;;;-1.68;83.06
41706;BME280;27385;51.096;17.190;2023-01-29T05:42:21;101249.09;;;-1.68;83.21
41706;BME280;27385;51.096;17.190;2023-01-29T05:44:52;101250.83;;;-1.67;83.18
41706;BME280;27385;51.096;17.190;2023-01-29T05:47:23;101257.02;;;-1.67;83.20
41706;BME280;27385;51.096;17.190;2023-01-29T05:49:54;101257.46;;;-1.68;82.94
41706;BME280;27385;51.096;17.190;2023-01-29T05:52:26;101254.48;;;-1.69;82.89
41706;BME280;27385;51.096;17.190;2023-01-29T05:54:57;101249.05;;;-1.70;82.89
41706;BME280;27385;51.096;17.190;2023-01-29T05:57:27;101245.15;;;-1.70;82.74
41706;BME280;27385;51.096;17.190;2023-01-29T05:59:58;101241.21;;;-1.71;82.79
41706;BME280;27385;51.096;17.190;2023-01-29T06:02:31;101240.66;;;-1.73;82.61
41706;BME280;27385;51.096;17.190;2023-01-29T06:05:02;101243.07;;;-1.74;82.70
41706;BME280;27385;51.096;17.190;2023-01-29T06:07:33;101245.09;;;-1.74;82.88
41706;BME280;27385;51.096;17.190;2023-01-29T06:10:05;101253.70;;;-1.75;82.86
41706;BME280;27385;51.096;17.190;2023-01-29T06:12:37;101252.42;;;-1.76;82.45
41706;BME280;27385;51.096;17.190;2023-01-29T06:15:10;101246.79;;;-1.77;82.58
41706;BME280;27385;51.096;17.190;2023-01-29T06:17:42;101244.11;;;-1.78;82.57
41706;BME280;27385;51.096;17.190;2023-01-29T06:20:14;101254.64;;;-1.80;82.48
41706;BME280;27385;51.096;17.190;2023-01-29T06:22:44;101255.34;;;-1.80;82.45
41706;BME280;27385;51.096;17.190;2023-01-29T06:25:16;101251.91;;;-1.80;82.49
41706;BME280;27385;51.096;17.190;2023-01-29T06:27:50;101249.17;;;-1.80;82.61
41706;BME280;27385;51.096;17.190;2023-01-29T06:30:22;101249.65;;;-1.78;82.60
41706;BME280;27385;51.096;17.190;2023-01-29T06:32:56;101251.17;;;-1.77;82.63
41706;BME280;27385;51.096;17.190;2023-01-29T06:35:30;101255.39;;;-1.77;82.45
41706;BME280;27385;51.096;17.190;2023-01-29T06:38:01;101262.29;;;-1.76;82.38
41706;BME280;27385;51.096;17.190;2023-01-29T06:40:32;101270.17;;;-1.77;82.39
41706;BME280;27385;51.096;17.190;2023-01-29T06:43:02;101273.45;;;-1.77;82.48
41706;BME280;27385;51.096;17.190;2023-01-29T06:45:34;101269.00;;;-1.77;82.42
41706;BME280;27385;51.096;17.190;2023-01-29T06:48:05;101270.72;;;-1.76;82.45
41706;BME280;27385;51.096;17.190;2023-01-29T06:50:36;101271.91;;;-1.75;82.44
41706;BME280;27385;51.096;17.190;2023-01-29T06:53:07;101278.93;;;-1.76;82.36
41706;BME280;27385;51.096;17.190;2023-01-29T06:55:38;101280.17;;;-1.77;82.10
41706;BME280;27385;51.096;17.190;2023-01-29T06:58:10;101280.45;;;-1.80;82.01
41706;BME280;27385;51.096;17.190;2023-01-29T07:00:42;101285.84;;;-1.81;82.02
41706;BME280;27385;51.096;17.190;2023-01-29T07:03:13;101302.25;;;-1.82;82.20
41706;BME280;27385;51.096;17.190;2023-01-29T07:05:43;101308.13;;;-1.81;82.14
41706;BME280;27385;51.096;17.190;2023-01-29T07:08:19;101307.96;;;-1.82;81.98
41706;BME280;27385;51.096;17.190;2023-01-29T07:10:51;101307.41;;;-1.82;82.04
41706;BME280;27385;51.096;17.190;2023-01-29T07:13:22;101314.27;;;-1.82;82.04
41706;BME280;27385;51.096;17.190;2023-01-29T07:15:53;101312.97;;;-1.81;82.06
41706;BME280;27385;51.096;17.190;2023-01-29T07:18:24;101318.06;;;-1.80;82.12
41706;BME280;27385;51.096;17.190;2023-01-29T07:20:55;101322.07;;;-1.79;82.14
41706;BME280;27385;51.096;17.190;2023-01-29T07:23:27;101321.88;;;-1.76;82.12
41706;BME280;27385;51.096;17.190;2023-01-29T07:26:01;101321.02;;;-1.76;82.12
41706;BME280;27385;51.096;17.190;2023-01-29T07:28:36;101320.86;;;-1.75;81.96
41706;BME280;27385;51.096;17.190;2023-01-29T07:31:08;101318.53;;;-1.75;82.00
41706;BME280;27385;51.096;17.190;2023-01-29T07:33:41;101313.61;;;-1.75;82.11
41706;BME280;27385;51.096;17.190;2023-01-29T07:36:12;101308.38;;;-1.74;81.98
41706;BME280;27385;51.096;17.190;2023-01-29T07:38:44;101309.42;;;-1.71;82.03
41706;BME280;27385;51.096;17.190;2023-01-29T07:41:18;101308.49;;;-1.71;81.82
41706;BME280;27385;51.096;17.190;2023-01-29T07:43:49;101309.60;;;-1.70;81.80
41706;BME280;27385;51.096;17.190;2023-01-29T07:46:21;101307.58;;;-1.69;81.79
41706;BME280;27385;51.096;17.190;2023-01-29T07:48:52;101303.77;;;-1.67;81.98
41706;BME280;27385;51.096;17.190;2023-01-29T07:51:23;101298.79;;;-1.66;82.02
41706;BME280;27385;51.096;17.190;2023-01-29T07:53:53;101299.39;;;-1.62;82.08
41706;BME280;27385;51.096;17.190;2023-01-29T07:56:25;101304.98;;;-1.59;81.98
41706;BME280;27385;51.096;17.190;2023-01-29T07:58:56;101312.44;;;-1.57;81.72
41706;BME280;27385;51.096;17.190;2023-01-29T08:01:27;101309.89;;;-1.54;81.69
41706;BME280;27385;51.096;17.190;2023-01-29T08:03:58;101297.93;;;-1.53;81.59
41706;BME280;27385;51.096;17.190;2023-01-29T08:06:29;101289.27;;;-1.52;81.59
41706;BME280;27385;51.096;17.190;2023-01-29T08:09:00;101279.98;;;-1.49;81.61
41706;BME280;27385;51.096;17.190;2023-01-29T08:11:30;101286.36;;;-1.47;81.47
41706;BME280;27385;51.096;17.190;2023-01-29T08:14:02;101286.98;;;-1.47;81.46
41706;BME280;27385;51.096;17.190;2023-01-29T08:16:32;101286.60;;;-1.46;81.57
41706;BME280;27385;51.096;17.190;2023-01-29T08:19:03;101288.57;;;-1.45;81.25
41706;BME280;27385;51.096;17.190;2023-01-29T08:21:35;101281.61;;;-1.45;81.18
41706;BME280;27385;51.096;17.190;2023-01-29T08:24:07;101279.05;;;-1.43;81.00
41706;BME280;27385;51.096;17.190;2023-01-29T08:26:38;101274.61;;;-1.42;81.29
41706;BME280;27385;51.096;17.190;2023-01-29T08:29:09;101270.17;;;-1.40;81.32
41706;BME280;27385;51.096;17.190;2023-01-29T08:31:40;101268.70;;;-1.38;80.89
41706;BME280;27385;51.096;17.190;2023-01-29T08:34:11;101274.67;;;-1.37;80.97
41706;BME280;27385;51.096;17.190;2023-01-29T08:36:42;101266.39;;;-1.35;80.81
41706;BME280;27385;51.096;17.190;2023-01-29T08:39:13;101263.02;;;-1.35;80.78
41706;BME280;27385;51.096;17.190;2023-01-29T08:41:45;101256.23;;;-1.34;81.02
41706;BME280;27385;51.096;17.190;2023-01-29T08:44:16;101250.92;;;-1.33;80.85
41706;BME280;27385;51.096;17.190;2023-01-29T08:46:47;101241.95;;;-1.31;81.15
41706;BME280;27385;51.096;17.190;2023-01-29T08:49:18;101241.29;;;-1.28;80.88
41706;BME280;27385;51.096;17.190;2023-01-29T08:51:49;101242.71;;;-1.26;80.89
41706;BME280;27385;51.096;17.190;2023-01-29T08:54:19;101239.75;;;-1.23;80.91
41706;BME280;27385;51.096;17.190;2023-01-29T08:56:50;101234.23;;;-1.21;81.02
41706;BME280;27385;51.096;17.190;2023-01-29T08:59:22;101236.53;;;-1.17;81.06
41706;BME280;27385;51.096;17.190;2023-01-29T09:01:53;101233.73;;;-1.15;80.96
41706;BME280;27385;51.096;17.190;2023-01-29T09:04:24;101238.70;;;-1.12;81.09
41706;BME280;27385;51.096;17.190;2023-01-29T09:06:55;101243.41;;;-1.11;80.64
41706;BME280;27385;51.096;17.190;2023-01-29T09:09:26;101247.90;;;-1.10;80.78
41706;BME280;27385;51.096;17.190;2023-01-29T09:11:57;101247.11;;;-1.09;80.47
41706;BME280;27385;51.096;17.190;2023-01-29T09:14:28;101237.66;;;-1.08;80.83
41706;BME280;27385;51.096;17.190;2023-01-29T09:16:59;101234.77;;;-1.06;80.90
41706;BME280;27385;51.096;17.190;2023-01-29T09:19:30;101240.34;;;-1.04;80.62
41706;BME280;27385;51.096;17.190;2023-01-29T09:22:02;101245.90;;;-1.05;80.27
41706;BME280;27385;51.096;17.190;2023-01-29T09:24:34;101245.58;;;-1.05;80.32
41706;BME280;27385;51.096;17.190;2023-01-29T09:27:06;101240.80;;;-1.05;80.29
41706;BME280;27385;51.096;17.190;2023-01-29T09:29:38;101236.75;;;-1.03;80.80
41706;BME280;27385;51.096;17.190;2023-01-29T09:32:11;101239.45;;;-1.00;80.56
41706;BME280;27385;51.096;17.190;2023-01-29T09:34:42;101239.55;;;-0.97;80.68
41706;BME280;27385;51.096;17.190;2023-01-29T09:37:13;101237.96;;;-0.92;80.86
41706;BME280;27385;51.096;17.190;2023-01-29T09:39:47;101237.86;;;-0.86;80.83
41706;BME280;27385;51.096;17.190;2023-01-29T09:42:22;101234.92;;;-0.82;80.44
41706;BME280;27385;51.096;17.190;2023-01-29T09:45:03;101233.46;;;-0.78;80.76
41706;BME280;27385;51.096;17.190;2023-01-29T09:47:36;101234.46;;;-0.72;80.77
41706;BME280;27385;51.096;17.190;2023-01-29T09:50:12;101222.35;;;-0.68;80.65
41706;BME280;27385;51.096;17.190;2023-01-29T09:52:48;101212.27;;;-0.64;80.66
41706;BME280;27385;51.096;17.190;2023-01-29T09:55:25;101205.27;;;-0.58;80.75
41706;BME280;27385;51.096;17.190;2023-01-29T09:57:58;101203.98;;;-0.52;80.87
41706;BME280;27385;51.096;17.190;2023-01-29T10:00:35;101199.11;;;-0.44;80.84
41706;BME280;27385;51.096;17.190;2023-01-29T10:03:27;101190.92;;;-0.36;80.96
41706;BME280;27385;51.096;17.190;2023-01-29T10:09:32;101181.62;;;-0.20;80.69
41706;BME280;27385;51.096;17.190;2023-01-29T10:12:22;101176.02;;;-0.13;80.32
41706;BME280;27385;51.096;17.190;2023-01-29T10:15:04;101174.01;;;-0.08;80.67
41706;BME280;27385;51.096;17.190;2023-01-29T10:17:58;101175.38;;;-0.01;80.57
41706;BME280;27385;51.096;17.190;2023-01-29T10:20:50;101166.53;;;0.03;80.21
41706;BME280;27385;51.096;17.190;2023-01-29T10:23:28;101165.73;;;0.03;79.78
41706;BME280;27385;51.096;17.190;2023-01-29T10:26:02;101156.64;;;0.01;79.97
41706;BME280;27385;51.096;17.190;2023-01-29T10:28:38;101149.83;;;0.02;80.04
41706;BME280;27385;51.096;17.190;2023-01-29T10:31:14;101147.24;;;0.02;79.86
41706;BME280;27385;51.096;17.190;2023-01-29T10:33:50;101142.92;;;0.02;79.82
41706;BME280;27385;51.096;17.190;2023-01-29T10:36:25;101139.31;;;0.03;79.82
41706;BME280;27385;51.096;17.190;2023-01-29T10:38:59;101140.56;;;0.03;79.78
41706;BME280;27385;51.096;17.190;2023-01-29T10:41:43;101139.40;;;0.04;79.87
41706;BME280;27385;51.096;17.190;2023-01-29T10:44:26;101137.44;;;0.07;79.70
41706;BME280;27385;51.096;17.190;2023-01-29T10:47:12;101138.55;;;0.08;79.86
41706;BME280;27385;51.096;17.190;2023-01-29T10:49:59;101138.25;;;0.11;79.75
41706;BME280;27385;51.096;17.190;2023-01-29T10:52:49;101138.81;;;0.13;79.91
41706;BME280;27385;51.096;17.190;2023-01-29T10:55:36;101134.90;;;0.19;80.30
41706;BME280;27385;51.096;17.190;2023-01-29T10:58:21;101138.16;;;0.27;80.26
41706;BME280;27385;51.096;17.190;2023-01-29T11:00:56;101131.56;;;0.32;80.06
41706;BME280;27385;51.096;17.190;2023-01-29T11:03:31;101128.84;;;0.37;80.10
41706;BME280;27385;51.096;17.190;2023-01-29T11:06:11;101120.61;;;0.43;80.19
41706;BME280;27385;51.096;17.190;2023-01-29T11:08:48;101116.77;;;0.50;80.27
41706;BME280;27385;51.096;17.190;2023-01-29T11:11:24;101119.79;;;0.56;80.34
41706;BME280;27385;51.096;17.190;2023-01-29T11:14:03;101117.52;;;0.62;80.23
41706;BME280;27385;51.096;17.190;2023-01-29T11:16:43;101108.72;;;0.65;80.14
41706;BME280;27385;51.096;17.190;2023-01-29T11:19:15;101101.35;;;0.68;79.89
41706;BME280;27385;51.096;17.190;2023-01-29T11:21:55;101097.97;;;0.69;79.73
41706;BME280;27385;51.096;17.190;2023-01-29T11:24:27;101098.91;;;0.70;79.85
41706;BME280;27385;51.096;17.190;2023-01-29T11:26:59;101102.92;;;0.74;80.12
41706;BME280;27385;51.096;17.190;2023-01-29T11:29:36;101098.05;;;0.77;80.20
41706;BME280;27385;51.096;17.190;2023-01-29T11:32:10;101095.46;;;0.82;80.17
41706;BME280;27385;51.096;17.190;2023-01-29T11:35:00;101091.61;;;0.85;80.09
41706;BME280;27385;51.096;17.190;2023-01-29T11:37:36;101085.17;;;0.86;80.09
41706;BME280;27385;51.096;17.190;2023-01-29T11:40:34;101077.48;;;0.89;80.07
41706;BME280;27385;51.096;17.190;2023-01-29T11:43:29;101074.80;;;0.90;79.76
41706;BME280;27385;51.096;17.190;2023-01-29T11:46:02;101063.02;;;0.90;79.67
41706;BME280;27385;51.096;17.190;2023-01-29T11:48:43;101055.88;;;0.92;80.12
41706;BME280;27385;51.096;17.190;2023-01-29T11:51:24;101051.95;;;0.96;80.20
41706;BME280;27385;51.096;17.190;2023-01-29T11:53:54;101043.05;;;1.00;80.01
41706;BME280;27385;51.096;17.190;2023-01-29T11:56:28;101042.27;;;1.03;80.11
41706;BME280;27385;51.096;17.190;2023-01-29T11:59:03;101035.44;;;1.04;80.45
41706;BME280;27385;51.096;17.190;2023-01-29T12:01:37;101035.36;;;1.07;80.79
41706;BME280;27385;51.096;17.190;2023-01-29T12:04:18;101029.61;;;1.09;80.57
41706;BME280;27385;51.096;17.190;2023-01-29T12:06:51;101025.29;;;1.10;80.52
41706;BME280;27385;51.096;17.190;2023-01-29T12:09:25;101025.85;;;1.10;80.54
41706;BME280;27385;51.096;17.190;2023-01-29T12:12:17;101021.13;;;1.11;80.63
41706;BME280;27385;51.096;17.190;2023-01-29T12:15:13;101016.73;;;1.13;80.50
41706;BME280;27385;51.096;17.190;2023-01-29T12:17:49;101007.54;;;1.12;80.59
41706;BME280;27385;51.096;17.190;2023-01-29T12:20:24;101000.00;;;1.13;80.73
41706;BME280;27385;51.096;17.190;2023-01-29T12:23:02;100992.91;;;1.16;80.86
41706;BME280;27385;51.096;17.190;2023-01-29T12:25:46;100988.19;;;1.18;80.94
41706;BME280;27385;51.096;17.190;2023-01-29T12:28:43;100979.47;;;1.20;80.85
41706;BME280;27385;51.096;17.190;2023-01-29T12:31:27;100973.95;;;1.22;80.89
41706;BME280;27385;51.096;17.190;2023-01-29T12:34:03;100971.27;;;1.24;81.13
41706;BME280;27385;51.096;17.190;2023-01-29T12:36:42;100972.84;;;1.27;81.13
41706;BME280;27385;51.096;17.190;2023-01-29T12:39:21;100972.27;;;1.29;81.08
41706;BME280;27385;51.096;17.190;2023-01-29T12:41:58;100975.73;;;1.31;81.04
41706;BME280;27385;51.096;17.190;2023-01-29T12:44:34;100973.30;;;1.32;80.86
41706;BME280;27385;51.096;17.190;2023-01-29T12:47:16;100968.18;;;1.33;80.99
41706;BME280;27385;51.096;17.190;2023-01-29T12:49:52;100960.47;;;1.35;81.10
41706;BME280;27385;51.096;17.190;2023-01-29T12:52:38;100963.45;;;1.36;81.02
41706;BME280;27385;51.096;17.190;2023-01-29T12:55:15;100958.51;;;1.34;81.05
41706;BME280;27385;51.096;17.190;2023-01-29T12:57:52;100955.05;;;1.33;81.24
41706;BME280;27385;51.096;17.190;2023-01-29T13:00:27;100953.48;;;1.32;81.19
41706;BME280;27385;51.096;17.190;2023-01-29T13:03:05;100941.15;;;1.32;81.26
41706;BME280;27385;51.096;17.190;2023-01-29T13:05:43;100938.70;;;1.34;81.44
41706;BME280;27385;51.096;17.190;2023-01-29T13:08:19;100932.26;;;1.36;81.45
41706;BME280;27385;51.096;17.190;2023-01-29T13:10:56;100925.33;;;1.37;81.44
41706;BME280;27385;51.096;17.190;2023-01-29T13:13:33;100926.89;;;1.39;81.61
41706;BME280;27385;51.096;17.190;2023-01-29T13:16:09;100925.47;;;1.40;81.49
41706;BME280;27385;51.096;17.190;2023-01-29T13:18:45;100921.94;;;1.39;81.52
41706;BME280;27385;51.096;17.190;2023-01-29T13:21:21;100931.36;;;1.40;81.58
41706;BME280;27385;51.096;17.190;2023-01-29T13:23:56;100931.27;;;1.42;81.69
41706;BME280;27385;51.096;17.190;2023-01-29T13:26:30;100929.52;;;1.45;81.62
41706;BME280;27385;51.096;17.190;2023-01-29T13:29:03;100926.70;;;1.46;81.43
41706;BME280;27385;51.096;17.190;2023-01-29T13:31:35;100923.16;;;1.47;81.51